Time;durP1;ratioP1;P1;durP2;ratioP2;P2;SDS_P1;SDS_P2;PMS_P1;PMS_P2;Temp;Humidity;BMP_temperature;BMP_pressure;BME280_temperature;BME280_humidity;BME280_pressure;Samples;Min_cycle;Max_cycle;Signal;HPM_P1;HPM_P2
2022/09/01 00:02:13;;;;;;;9.23;6.50;;;;;;;;;;5055259;28;20036;-62
2022/09/01 00:04:39;;;;;;;;;;;24.80;70.10;;;;;;5054685;28;20029;-60
2022/09/01 00:07:08;;;;;;;7.03;6.32;;;24.20;74.20;;;;;;5064642;28;19909;-60
2022/09/01 00:09:34;;;;;;;7.95;6.85;;;24.10;74.30;;;;;;5054721;28;20159;-62
2022/09/01 00:12:00;;;;;;;9.13;6.72;;;24.10;74.30;;;;;;5073774;28;20034;-61
2022/09/01 00:14:30;;;;;;;7.75;6.82;;;24.10;74.50;;;;;;5073731;28;20557;-59
2022/09/01 00:16:59;;;;;;;7.75;7.03;;;23.70;74.80;;;;;;5068454;28;20422;-60
2022/09/01 00:19:28;;;;;;;9.65;7.35;;;;;;;;;;5060832;28;20013;-61
2022/09/01 00:21:55;;;;;;;9.23;7.82;;;;;;;;;;5053712;28;20108;-60
2022/09/01 00:24:22;;;;;;;7.40;6.70;;;;;;;;;;5034081;28;20025;-60
2022/09/01 00:26:48;;;;;;;9.20;7.15;;;;;;;;;;5033890;28;20037;-62
2022/09/01 00:29:15;;;;;;;8.48;7.63;;;;;;;;;;5033495;28;20040;-61
2022/09/01 00:31:42;;;;;;;9.63;7.05;;;;;;;;;;5031973;28;20030;-61
2022/09/01 00:34:08;;;;;;;7.50;6.75;;;;;;;;;;5034147;28;20288;-62
2022/09/01 00:36:34;;;;;;;8.88;7.00;;;;;;;;;;5053794;28;20395;-63
2022/09/01 00:39:00;;;;;;;8.05;7.32;;;;;;;;;;5053553;28;20029;-62
2022/09/01 00:41:27;;;;;;;9.13;7.18;;;;;;;;;;5053418;28;20037;-62
2022/09/01 00:43:53;;;;;;;;;;;;;;;;;;5052772;28;20079;-61
2022/09/01 00:46:24;;;;;;;7.90;6.63;;;;;;;;;;5053635;28;19909;-61
2022/09/01 00:48:57;;;;;;;6.40;5.60;;;24.00;74.60;;;;;;5052118;28;20070;-60
2022/09/01 00:51:24;;;;;;;7.97;7.18;;;23.80;75.20;;;;;;5053311;28;20031;-61
2022/09/01 00:53:50;;;;;;;6.70;6.10;;;23.80;75.20;;;;;;5053294;28;20033;-60
2022/09/01 00:56:16;;;;;;;8.60;7.03;;;23.80;75.20;;;;;;5052129;28;20279;-60
2022/09/01 00:58:42;;;;;;;8.20;6.50;;;23.80;75.10;;;;;;5053290;28;20483;-60
2022/09/01 01:01:10;;;;;;;7.47;6.65;;;23.80;75.00;;;;;;5053113;28;20228;-60
2022/09/01 01:03:36;;;;;;;7.95;6.80;;;23.80;74.80;;;;;;5053233;28;20083;-62
2022/09/01 01:06:07;;;;;;;7.70;6.85;;;23.80;74.90;;;;;;5053256;28;20048;-60
2022/09/01 01:08:36;;;;;;;7.05;6.35;;;23.80;75.00;;;;;;5053067;28;20048;-62
2022/09/01 01:11:10;;;;;;;8.52;7.13;;;23.80;75.00;;;;;;5052831;28;20040;-60
2022/09/01 01:13:59;;;;;;;9.30;6.25;;;23.80;75.30;;;;;;5051700;28;20557;-60
2022/09/01 01:16:28;;;;;;;7.75;6.57;;;23.70;75.50;;;;;;5053018;28;20522;-62
2022/09/01 01:18:54;;;;;;;9.70;6.32;;;23.70;75.30;;;;;;5059069;28;20100;-62
2022/09/01 01:24:18;;;;;;;7.65;6.82;;;23.70;75.10;;;;;;5064782;28;20160;-62
2022/09/01 01:26:46;;;;;;;11.20;7.07;;;23.70;74.70;;;;;;5068746;28;20025;-61
2022/09/01 01:29:12;;;;;;;9.98;7.25;;;23.70;74.90;;;;;;5053925;28;20060;-61
2022/09/01 01:31:37;;;;;;;6.93;6.33;;;23.70;74.80;;;;;;5064601;28;20348;-62
2022/09/01 01:34:06;;;;;;;12.70;7.43;;;23.70;74.90;;;;;;5056829;28;20051;-62
2022/09/01 01:36:35;;;;;;;7.82;7.03;;;23.70;75.00;;;;;;5069079;28;20141;-61
2022/09/01 01:39:05;;;;;;;7.10;6.40;;;23.70;75.00;;;;;;5053924;28;20033;-62
2022/09/01 01:41:32;;;;;;;7.30;6.63;;;23.60;75.00;;;;;;5052134;28;20025;-62
2022/09/01 01:44:01;;;;;;;7.72;6.95;;;23.60;75.10;;;;;;5052415;28;20041;-60
2022/09/01 01:46:27;;;;;;;7.78;5.82;;;23.60;75.10;;;;;;5052377;28;20161;-63
2022/09/01 01:48:54;;;;;;;7.57;6.00;;;23.50;75.10;;;;;;5052332;28;20537;-59
2022/09/01 01:51:25;;;;;;;10.13;7.03;;;23.50;75.10;;;;;;5052072;28;20403;-60
2022/09/01 01:53:51;;;;;;;6.82;6.18;;;23.50;75.00;;;;;;5052235;28;20025;-60
2022/09/01 01:56:18;;;;;;;9.07;6.90;;;23.50;75.00;;;;;;5052142;28;20021;-61
2022/09/01 01:58:44;;;;;;;7.97;7.18;;;23.50;74.90;;;;;;5052083;28;20024;-62
2022/09/01 02:01:11;;;;;;;7.03;6.43;;;23.50;75.10;;;;;;5050728;28;20047;-59
2022/09/01 02:03:38;;;;;;;13.00;7.18;;;23.50;75.10;;;;;;5052596;28;20039;-63
2022/09/01 02:06:08;;;;;;;8.05;6.13;;;23.40;75.30;;;;;;5052044;28;20075;-59
2022/09/01 02:08:36;;;;;;;9.43;6.10;;;23.40;75.30;;;;;;5052060;28;20071;-62
2022/09/01 02:11:04;;;;;;;7.32;5.90;;;23.40;75.30;;;;;;5051631;28;20017;-61
2022/09/01 02:13:30;;;;;;;7.28;6.15;;;23.40;75.30;;;;;;5051848;28;20021;-60
2022/09/01 02:15:59;;;;;;;6.97;6.10;;;23.40;75.20;;;;;;5051934;28;20025;-59
2022/09/01 02:18:30;;;;;;;7.82;7.13;;;23.40;75.10;;;;;;5051800;28;20021;-62
2022/09/01 02:20:57;;;;;;;6.97;6.15;;;23.30;75.30;;;;;;5050371;28;20361;-59
2022/09/01 02:23:23;;;;;;;9.73;6.95;;;23.30;75.30;;;;;;5051733;28;20044;-60
2022/09/01 02:25:53;;;;;;;8.50;6.40;;;23.40;75.40;;;;;;5051736;28;20494;-59
2022/09/01 02:28:21;;;;;;;8.63;6.03;;;23.30;75.30;;;;;;5051695;28;20048;-62
2022/09/01 02:30:50;;;;;;;7.03;6.43;;;23.30;75.30;;;;;;5051350;28;20507;-61
2022/09/01 02:33:18;;;;;;;10.20;6.65;;;23.30;75.40;;;;;;5051584;28;20133;-60
2022/09/01 02:36:13;;;;;;;7.43;6.68;;;23.20;75.40;;;;;;5051523;28;20017;-60
2022/09/01 02:38:43;;;;;;;10.35;6.57;;;;;;;;;;5104505;22;20140;-64
2022/09/01 02:41:11;;;;;;;6.47;5.88;;;;;;;;;;5068544;28;20028;-64
2022/09/01 02:43:38;;;;;;;8.05;6.03;;;;;;;;;;5068370;28;20025;-64
2022/09/01 02:46:05;;;;;;;7.95;6.78;;;;;;;;;;5051531;28;20025;-63
2022/09/01 02:48:35;;;;;;;8.30;7.53;;;;;;;;;;5061315;28;20039;-64
2022/09/01 02:51:02;;;;;;;8.82;6.95;;;;;;;;;;5070808;28;20072;-63
2022/09/01 02:53:33;;;;;;;9.00;6.72;;;;;;;;;;5072087;28;20078;-63
2022/09/01 02:56:00;;;;;;;11.02;7.50;;;;;;;;;;5075141;28;20378;-63
2022/09/01 02:58:27;;;;;;;9.25;7.78;;;;;;;;;;5075488;28;20016;-63
2022/09/01 03:00:54;;;;;;;9.57;7.03;;;;;;;;;;5074833;28;20028;-64
2022/09/01 03:03:21;;;;;;;8.05;7.05;;;;;;;;;;5074593;28;20397;-64
2022/09/01 03:05:47;;;;;;;15.27;8.02;;;;;;;;;;5056938;28;20491;-63
2022/09/01 03:08:15;;;;;;;7.82;7.10;;;;;;;;;;5056302;28;20078;-64
2022/09/01 03:10:42;;;;;;;10.43;8.68;;;;;;;;;;5075156;28;20024;-63
2022/09/01 03:13:10;;;;;;;9.50;8.15;;;;;;;;;;5073816;28;20029;-63
2022/09/01 03:15:38;;;;;;;10.20;8.23;;;;;;;;;;5060786;28;20033;-63
2022/09/01 03:18:05;;;;;;;8.90;7.57;;;;;;;;;;5038351;28;20017;-64
2022/09/01 03:20:32;;;;;;;10.63;8.18;;;;;;;;;;5075000;28;20025;-64
2022/09/01 03:23:03;;;;;;;13.07;8.82;;;;;;;;;;5074727;28;20137;-64
2022/09/01 03:25:30;;;;;;;11.20;7.35;;;;;;;;;;5056067;28;20037;-64
2022/09/01 03:28:01;;;;;;;;;;;;;;;;;;5075128;28;20493;-64
2022/09/01 03:30:31;;;;;;;9.90;8.75;;;;;;;;;;5074810;28;20301;-63
2022/09/01 03:32:57;;;;;;;8.98;8.05;;;;;;;;;;5074580;28;20024;-64
2022/09/01 03:35:25;;;;;;;9.00;8.02;;;;;;;;;;5073978;28;20069;-64
2022/09/01 03:37:52;;;;;;;9.63;8.48;;;;;;;;;;5056159;28;20496;-64
2022/09/01 03:40:18;;;;;;;8.90;7.07;;;;;;;;;;5074717;28;20021;-64
2022/09/01 03:42:45;;;;;;;14.00;8.30;;;;;;;;;;5056334;28;20028;-64
2022/09/01 03:45:14;;;;;;;14.73;8.32;;;;;;;;;;5073743;28;20079;-64
2022/09/01 03:47:41;;;;;;;8.57;7.78;;;;;;;;;;5074328;28;20446;-64
2022/09/01 03:50:11;;;;;;;;;;;;;;;;;;5074800;28;20025;-64
2022/09/01 03:52:39;;;;;;;11.95;7.57;;;;;;;;;;5074310;28;20413;-64
2022/09/01 03:55:06;;;;;;;14.48;9.05;;;;;;;;;;5073223;28;20031;-52
2022/09/01 03:57:33;;;;;;;10.48;8.75;;;;;;;;;;5074061;28;20025;-64
2022/09/01 03:59:59;;;;;;;8.98;8.18;;;;;;;;;;5074343;28;20048;-64
2022/09/01 04:02:28;;;;;;;9.17;8.27;;;;;;;;;;5054808;28;20078;-64
2022/09/01 04:04:54;;;;;;;8.57;7.50;;;;;;;;;;5074282;28;20495;-64
2022/09/01 04:07:20;;;;;;;9.97;8.00;;;;;;;;;;5056209;28;20025;-64
2022/09/01 04:09:46;;;;;;;10.10;8.23;;;;;;;;;;5074172;28;20528;-64
2022/09/01 04:12:14;;;;;;;10.00;8.23;;;;;;;;;;5074021;28;20024;-64
2022/09/01 04:14:41;;;;;;;10.20;8.70;;;;;;;;;;5073944;28;20304;-64
2022/09/01 04:19:52;;;;;;;11.68;8.20;;;;;;;;;;5074342;28;20036;-64
2022/09/01 04:22:19;;;;;;;10.40;9.00;;;;;;;;;;5073858;28;20024;-64
2022/09/01 04:24:45;;;;;;;11.90;9.07;;;;;;;;;;5073974;28;20251;-64
2022/09/01 04:27:12;;;;;;;11.37;8.73;;;;;;;;;;5074009;28;20383;-64
2022/09/01 04:29:38;;;;;;;13.75;9.05;;;;;;;;;;5073850;28;20107;-64
2022/09/01 04:32:06;;;;;;;11.13;8.10;;;;;;;;;;5073554;28;20473;-64
2022/09/01 04:34:36;;;;;;;9.57;8.60;;;;;;;;;;5073601;28;20025;-64
2022/09/01 04:37:08;;;;;;;9.48;8.57;;;;;;;;;;5073743;28;20471;-64
2022/09/01 04:39:35;;;;;;;11.40;9.07;;;;;;;;;;5073609;28;20106;-64
2022/09/01 04:42:05;;;;;;;9.25;8.27;;;;;;;;;;5073412;28;20104;-64
2022/09/01 04:44:31;;;;;;;9.45;8.38;;;;;;;;;;5055515;28;20402;-64
2022/09/01 04:46:57;;;;;;;31.30;10.40;;;;;;;;;;5073587;28;20056;-64
2022/09/01 04:49:25;;;;;;;12.17;9.77;;;;;;;;;;5073486;28;20032;-64
2022/09/01 04:51:52;;;;;;;11.85;9.50;;;;;;;;;;5073288;28;20051;-64
2022/09/01 04:54:18;;;;;;;;;;;;;;;;;;5073767;28;20024;-64
2022/09/01 04:56:45;;;;;;;12.77;10.18;;;;;;;;;;5073307;28;19905;-64
2022/09/01 04:59:13;;;;;;;13.38;10.82;;;;;;;;;;5073248;28;20052;-64
2022/09/01 05:01:42;;;;;;;13.48;9.63;;;;;;;;;;5073032;28;20020;-64
2022/09/01 05:04:18;;;;;;;13.10;9.15;;;;;;;;;;5073411;28;20057;-68
2022/09/01 05:06:46;;;;;;;14.70;9.98;;;;;;;;;;5055235;28;20024;-64
2022/09/01 05:09:12;;;;;;;11.38;9.93;;;;;;;;;;5072987;28;20024;-64
2022/09/01 05:11:44;;;;;;;10.55;9.55;;;;;;;;;;5054917;28;20021;-64
2022/09/01 05:14:11;;;;;;;10.90;9.85;;;;;;;;;;5073018;28;20025;-64
2022/09/01 05:16:39;;;;;;;11.35;9.10;;;;;;;;;;5072557;28;20031;-64
2022/09/01 05:19:06;;;;;;;10.98;9.70;;;;;;;;;;5072849;28;20020;-64
2022/09/01 05:21:32;;;;;;;10.63;9.45;;;;;;;;;;5072668;28;20090;-64
2022/09/01 05:24:03;;;;;;;13.38;9.38;;;;;;;;;;5072776;28;20104;-64
2022/09/01 05:26:32;;;;;;;12.45;8.93;;;;;;;;;;5072707;28;20490;-64
2022/09/01 05:29:02;;;;;;;15.80;9.98;;;22.90;78.10;;;;;;5072899;28;20056;-64
2022/09/01 05:31:33;;;;;;;10.23;8.93;;;23.00;78.60;;;;;;5054530;28;20024;-64
2022/09/01 05:34:00;;;;;;;14.40;9.38;;;23.10;77.80;;;;;;5054873;28;20032;-64
2022/09/01 05:36:27;;;;;;;10.30;8.95;;;23.10;77.90;;;;;;5072516;28;20435;-64
2022/09/01 05:38:53;;;;;;;10.27;8.85;;;;;;;;;;5072382;28;20032;-64
2022/09/01 05:41:20;;;;;;;13.27;9.20;;;;;;;;;;5072357;28;20032;-65
2022/09/01 05:43:48;;;;;;;17.45;8.63;;;;;;;;;;5072809;28;20364;-64
2022/09/01 05:46:15;;;;;;;9.43;8.48;;;;;;;;;;5054394;28;20043;-64
2022/09/01 05:48:42;;;;;;;10.35;8.40;;;;;;;;;;5072262;28;20048;-64
2022/09/01 05:51:09;;;;;;;10.50;9.30;;;;;;;;;;5072117;28;20021;-64
2022/09/01 05:53:36;;;;;;;15.13;9.88;;;;;;;;;;5072225;28;20051;-64
2022/09/01 05:56:08;;;;;;;9.90;8.82;;;;;;;;;;5072045;28;20020;-64
2022/09/01 05:58:34;;;;;;;10.63;9.55;;;;;;;;;;5072151;28;20025;-64
2022/09/01 06:01:01;;;;;;;12.73;10.23;;;;;;;;;;5054069;28;20070;-64
2022/09/01 06:03:27;;;;;;;11.30;10.20;;;;;;;;;;5072012;28;20020;-64
2022/09/01 06:05:54;;;;;;;11.45;9.30;;;;;;;;;;5072132;28;20070;-64
2022/09/01 06:08:22;;;;;;;10.35;8.93;;;;;;;;;;5071812;28;20040;-64
2022/09/01 06:10:49;;;;;;;10.60;8.65;;;;;;;;;;5053751;28;20025;-63
2022/09/01 06:13:15;;;;;;;10.40;9.20;;;;;;;;;;5053933;28;20062;-64
2022/09/01 06:15:43;;;;;;;10.00;8.57;;;;;;;;;;5053890;28;20051;-64
2022/09/01 06:18:11;;;;;;;10.60;8.85;;;;;;;;;;5071772;28;20108;-64
2022/09/01 06:20:41;;;;;;;19.75;8.95;;;;;;;;;;5071863;28;20043;-64
2022/09/01 06:23:07;;;;;;;10.93;7.97;;;;;;;;;;5071804;28;20402;-64
2022/09/01 06:25:38;;;;;;;10.80;7.25;;;;;;;;;;5071787;28;20081;-64
2022/09/01 06:28:04;;;;;;;10.18;7.43;;;;;;;;;;5070906;28;20036;-64
2022/09/01 06:30:31;;;;;;;9.10;5.88;;;;;;;;;;5071533;28;20498;-65
2022/09/01 06:33:00;;;;;;;;;;;;;;;;;;5054069;28;20033;-64
2022/09/01 06:35:28;;;;;;;7.05;5.95;;;;;;;;;;5071686;28;19908;-64
2022/09/01 06:37:55;;;;;;;10.15;5.70;;;;;;;;;;5071457;28;20021;-64
2022/09/01 06:40:24;;;;;;;13.90;6.63;;;;;;;;;;5071574;28;20044;-64
2022/09/01 06:42:51;;;;;;;11.43;6.22;;;;;;;;;;5071399;28;20012;-64
2022/09/01 06:45:19;;;;;;;9.50;7.07;;;;;;;;;;5071471;28;20433;-64
2022/09/01 06:47:46;;;;;;;10.02;6.30;;;;;;;;;;5053498;28;20033;-64
2022/09/01 06:50:14;;;;;;;12.88;6.43;;;;;;;;;;5071508;28;20056;-64
2022/09/01 06:52:41;;;;;;;9.25;5.95;;;;;;;;;;5071423;28;20490;-64
2022/09/01 06:55:07;;;;;;;5.57;4.93;;;;;;;;;;5071375;28;20070;-64
2022/09/01 06:57:34;;;;;;;6.00;5.40;;;;;;;;;;5071235;28;20017;-64
2022/09/01 07:00:09;;;;;;;8.07;5.38;;;;;;;;;;5071458;28;20437;-64
2022/09/01 07:02:43;;;;;;;8.82;5.40;;;;;;;;;;5053087;28;20021;-64
2022/09/01 07:05:09;;;;;;;10.27;5.25;;;;;;;;;;5071429;28;20500;-64
2022/09/01 07:07:36;;;;;;;9.00;5.55;;;;;;;;;;5071237;28;20048;-62
2022/09/01 07:10:03;;;;;;;9.90;4.82;;;;;;;;;;5071294;28;20021;-61
2022/09/01 07:12:30;;;;;;;9.93;5.13;;;;;;;;;;5071213;28;20448;-60
2022/09/01 07:14:58;;;;;;;7.30;5.40;;;;;;;;;;5071398;28;20049;-61
2022/09/01 07:17:25;;;;;;;8.02;5.60;;;;;;;;;;5071283;28;20043;-62
2022/09/01 07:19:51;;;;;;;;;;;;;;;;;;5071676;28;20090;-62
2022/09/01 07:22:17;;;;;;;8.65;5.85;;;;;;;;;;5053088;28;20370;-63
2022/09/01 07:24:44;;;;;;;17.00;6.00;;;;;;;;;;5071079;28;20024;-63
2022/09/01 07:27:11;;;;;;;6.15;4.93;;;;;;;;;;5071162;28;20259;-63
2022/09/01 07:29:38;;;;;;;6.53;5.15;;;;;;;;;;5071049;28;20110;-63
2022/09/01 07:32:04;;;;;;;7.38;5.22;;;;;;;;;;5071067;28;20026;-63
2022/09/01 07:34:32;;;;;;;8.90;5.30;;;;;;;;;;5071007;28;20029;-63
2022/09/01 07:36:58;;;;;;;11.07;4.35;;;;;;;;;;5071056;28;20091;-64
2022/09/01 07:39:24;;;;;;;;;;;;;;;;;;5072365;28;20039;-63
2022/09/01 07:41:52;;;;;;;11.23;4.35;;;;;;;;;;5074726;28;19904;-64
2022/09/01 07:44:18;;;;;;;6.65;3.50;;;;;;;;;;5074634;28;20027;-64
2022/09/01 07:46:50;;;;;;;7.35;4.05;;;;;;;;;;5056616;28;20035;-63
2022/09/01 07:49:16;;;;;;;5.90;3.88;;;;;;;;;;5074646;28;20040;-63
2022/09/01 07:51:42;;;;;;;5.93;4.20;;;;;;;;;;5074456;28;20029;-64
2022/09/01 07:54:09;;;;;;;6.55;3.30;;;;;;;;;;5074415;28;20032;-63
2022/09/01 07:56:36;;;;;;;;;;;;;;;;;;5056918;28;20024;-63
2022/09/01 07:59:02;;;;;;;12.63;4.20;;;;;;;;;;5074359;28;20386;-63
2022/09/01 08:01:28;;;;;;;6.13;3.60;;;;;;;;;;5074287;28;20169;-63
2022/09/01 08:03:56;;;;;;;4.18;3.65;;;;;;;;;;5074414;28;20265;-63
2022/09/01 08:06:25;;;;;;;5.03;3.95;;;;;;;;;;5074252;28;20021;-63
2022/09/01 08:08:51;;;;;;;10.45;3.97;;;;;;;;;;5074109;28;20057;-63
2022/09/01 08:11:23;;;;;;;4.05;3.28;;;;;;;;;;5074272;28;20024;-63
2022/09/01 08:13:50;;;;;;;3.78;3.33;;;;;;;;;;5074131;28;20106;-63
2022/09/01 08:16:16;;;;;;;6.53;2.67;;;;;;;;;;5074239;28;20024;-63
2022/09/01 08:18:43;;;;;;;78.68;12.30;;;;;;;;;;5074022;28;20031;-63
2022/09/01 08:21:11;;;;;;;8.57;2.97;;;;;;;;;;5074240;28;20016;-63
2022/09/01 08:23:37;;;;;;;4.05;1.98;;;;;;;;;;5073973;28;20033;-64
2022/09/01 08:26:04;;;;;;;2.17;1.95;;;;;;;;;;5074010;28;20028;-63
2022/09/01 08:28:30;;;;;;;1.98;1.70;;;;;;;;;;5073900;28;20032;-63
2022/09/01 08:30:58;;;;;;;11.30;2.17;;;;;;;;;;5073844;28;20036;-64
2022/09/01 08:33:25;;;;;;;3.80;1.67;;;;;;;;;;5056000;28;20332;-63
2022/09/01 08:35:51;;;;;;;10.35;2.40;;;;;;;;;;5055748;28;20024;-63
2022/09/01 08:38:18;;;;;;;8.18;2.38;;;;;;;;;;5096968;22;20105;-52
2022/09/01 08:40:50;;;;;;;14.77;3.20;;;;;;;;;;5055178;28;20465;-52
2022/09/01 08:43:25;;;;;;;53.13;7.40;;;;;;;;;;5073645;28;20067;-52
2022/09/01 08:45:53;;;;;;;8.75;2.60;;;;;;;;;;5073617;28;20501;-54
2022/09/01 08:48:22;;;;;;;6.32;2.00;;;;;;;;;;5055552;28;20371;-53
2022/09/01 08:50:54;;;;;;;4.68;1.40;;;;;;;;;;5072499;28;20028;-53
2022/09/01 08:53:20;;;;;;;3.55;1.60;;;;;;;;;;5073501;28;20530;-52
2022/09/01 08:55:47;;;;;;;3.85;2.22;;;;;;;;;;5073425;28;20044;-53
2022/09/01 08:58:13;;;;;;;;;;;;;;;;;;5074271;28;20048;-54
2022/09/01 09:00:43;;;;;;;3.65;2.03;;;;;;;;;;5073127;28;19954;-52
2022/09/01 09:03:12;;;;;;;5.80;1.45;;;;;;;;;;5073281;28;20028;-52
2022/09/01 09:05:57;;;;;;;4.28;1.55;;;;;;;;;;5073218;28;20040;-54
2022/09/01 09:08:42;;;;;;;6.32;1.80;;;;;;;;;;5073027;28;20039;-52
2022/09/01 09:11:11;;;;;;;1.73;1.58;;;;;;;;;;5072896;28;20027;-52
2022/09/01 09:13:40;;;;;;;13.02;3.13;;;;;;;;;;5073147;28;20032;-52
2022/09/01 09:16:09;;;;;;;10.15;2.10;;;;;;;;;;5072864;28;20025;-52
2022/09/01 09:18:35;;;;;;;1.90;1.30;;;;;;;;;;5072865;28;20146;-52
2022/09/01 09:21:21;;;;;;;2.08;1.10;;;;;;;;;;5054676;28;20028;-53
2022/09/01 09:23:50;;;;;;;3.22;1.40;;;;;;;;;;5062110;28;20113;-53
2022/09/01 09:26:19;;;;;;;29.08;2.63;;;;;;;;;;5072737;28;20020;-53
2022/09/01 09:28:48;;;;;;;3.00;0.93;;;;;;;;;;5072689;28;20078;-52
2022/09/01 09:31:52;;;;;;;5.30;1.55;;;;;;;;;;5054537;28;20016;-52
2022/09/01 09:34:31;;;;;;;3.22;1.08;;;;;;;;;;5063091;28;20490;-56
2022/09/01 09:37:00;;;;;;;1.35;0.88;;;;;;;;;;5072653;28;20042;-54
2022/09/01 09:39:27;;;;;;;2.60;1.00;;;;;;;;;;5072407;28;20111;-53
2022/09/01 09:42:08;;;;;;;2.40;0.90;;;;;;;;;;5072249;28;20429;-51
2022/09/01 09:44:41;;;;;;;4.60;1.20;;;;;;;;;;5054544;28;20032;-56
2022/09/01 09:47:07;;;;;;;31.55;3.38;;;;;;;;;;5072423;28;20021;-54
2022/09/01 09:49:34;;;;;;;3.40;1.08;;;;;;;;;;5054352;28;20028;-54
2022/09/01 09:52:03;;;;;;;1.92;1.10;;;;;;;;;;5072164;28;20056;-54
2022/09/01 09:54:30;;;;;;;2.83;1.23;;;;;;;;;;5072197;28;20112;-54
2022/09/01 09:57:10;;;;;;;4.40;1.45;;;;;;;;;;5054191;28;20466;-53
2022/09/01 09:59:39;;;;;;;2.80;1.25;;;;;;;;;;5072142;28;20054;-53
2022/09/01 10:02:17;;;;;;;10.02;2.47;;;;;;;;;;5053903;28;20100;-54
2022/09/01 10:04:43;;;;;;;4.32;1.30;;;;;;;;;;5072139;28;20391;-54
2022/09/01 10:07:30;;;;;;;3.63;1.20;;;;;;;;;;5072106;28;20072;-52
2022/09/01 10:09:57;;;;;;;5.13;1.80;;;;;;;;;;5053932;28;20506;-52
2022/09/01 10:12:24;;;;;;;2.60;1.80;;;;;;;;;;5053740;28;20432;-55
2022/09/01 10:15:02;;;;;;;2.45;1.48;;;;;;;;;;5070774;28;20036;-52
2022/09/01 10:17:28;;;;;;;;;;;;;;;;;;5071737;28;20482;-52
2022/09/01 10:19:57;;;;;;;2.83;1.27;;;;;;;;;;5071174;28;19966;-52
2022/09/01 10:22:23;;;;;;;1.65;1.23;;;;;;;;;;5070229;28;20457;-54
2022/09/01 10:24:49;;;;;;;2.03;1.25;;;;;;;;;;5053304;28;20025;-53
2022/09/01 10:27:23;;;;;;;4.80;1.42;;;;;;;;;;5067403;28;20037;-52
2022/09/01 10:29:56;;;;;;;5.30;1.27;;;;;;;;;;5065912;28;20112;-52
2022/09/01 10:32:25;;;;;;;2.50;1.33;;;;;;;;;;5071596;28;20500;-53
2022/09/01 10:34:52;;;;;;;2.10;1.52;;;;;;;;;;5061986;28;20383;-52
2022/09/01 10:37:18;;;;;;;1.90;1.23;;;;;;;;;;5071147;28;20064;-54
2022/09/01 10:40:03;;;;;;;1.67;1.40;;;;;;;;;;5071468;28;20024;-53
2022/09/01 10:42:29;;;;;;;2.72;1.65;;;;;;;;;;5069905;28;20500;-52
2022/09/01 10:45:00;;;;;;;1.30;1.20;;;;;;;;;;5070702;28;20024;-52
2022/09/01 10:47:28;;;;;;;2.92;1.10;;;;;;;;;;5071353;28;20036;-54
2022/09/01 10:49:54;;;;;;;1.20;1.10;;;;;;;;;;5070665;28;20032;-52
2022/09/01 10:52:39;;;;;;;2.22;1.27;;;;;;;;;;5071181;28;20029;-53
2022/09/01 10:55:07;;;;;;;2.17;1.40;;;;;;;;;;5071124;28;20091;-54
2022/09/01 10:57:40;;;;;;;1.77;1.42;;;;;;;;;;5070750;28;20029;-55
2022/09/01 11:00:18;;;;;;;1.83;1.23;;;;;;;;;;5071208;28;20482;-54
2022/09/01 11:03:04;;;;;;;11.30;1.88;;;;;;;;;;5070145;28;20443;-52
2022/09/01 11:05:50;;;;;;;1.83;1.27;;;;;;;;;;5069682;28;20153;-53
2022/09/01 11:08:22;;;;;;;4.30;0.80;;;;;;;;;;5071128;28;20052;-53
2022/09/01 11:10:54;;;;;;;0.88;0.73;;;;;;;;;;5070966;28;20039;-53
2022/09/01 11:13:26;;;;;;;0.73;0.57;;;;;;;;;;5071053;28;20033;-55
2022/09/01 11:15:52;;;;;;;1.50;1.20;;;;;;;;;;5073985;28;20051;-55
2022/09/01 11:18:26;;;;;;;3.15;0.90;;;;;;;;;;5074516;28;20044;-54
2022/09/01 11:20:54;;;;;;;2.05;1.33;;;;;;;;;;5054265;28;20067;-52
2022/09/01 11:23:22;;;;;;;1.17;0.60;;;;;;;;;;5050611;28;20486;-54
2022/09/01 11:25:51;;;;;;;1.45;1.15;;;;;;;;;;5074943;28;20074;-55
2022/09/01 11:28:23;;;;;;;1.25;1.15;;;;;;;;;;5069293;28;20491;-53
2022/09/01 11:30:59;;;;;;;4.25;1.10;;;;;;;;;;5073784;28;20035;-52
2022/09/01 11:33:25;;;;;;;4.32;1.20;;;;;;;;;;5074170;28;20047;-52
2022/09/01 11:35:58;;;;;;;2.25;0.90;;;;;;;;;;5074363;28;20102;-53
2022/09/01 11:38:25;;;;;;;4.85;1.63;;;;;;;;;;5073866;28;20040;-53
2022/09/01 11:40:57;;;;;;;1.63;1.25;;;;;;;;;;5074456;28;20439;-52
2022/09/01 11:43:23;;;;;;;8.20;1.55;;;;;;;;;;5074493;28;20054;-52
2022/09/01 11:45:57;;;;;;;4.63;1.00;;;;;;;;;;5074299;28;20055;-52
2022/09/01 11:48:25;;;;;;;2.67;0.98;;;;;;;;;;5074168;28;20040;-52
2022/09/01 11:50:59;;;;;;;0.80;0.80;;;;;;;;;;5074385;28;20028;-54
2022/09/01 11:53:25;;;;;;;1.05;0.80;;;;;;;;;;5074293;28;20398;-54
2022/09/01 11:55:52;;;;;;;1.65;1.00;;;;;;;;;;5073838;28;20031;-53
2022/09/01 11:58:27;;;;;;;2.40;1.02;;;;;;;;;;5074005;28;20113;-53
2022/09/01 12:00:59;;;;;;;1.05;0.70;;;;;;;;;;5074187;28;20395;-55
2022/09/01 12:03:28;;;;;;;0.98;0.93;;;;;;;;;;5073711;28;20027;-55
2022/09/01 12:05:58;;;;;;;1.83;0.63;;;;;;;;;;5074083;28;20517;-53
2022/09/01 12:08:26;;;;;;;3.83;1.08;;;;;;;;;;5056029;28;20032;-54
2022/09/01 12:11:02;;;;;;;3.00;1.80;;;;;;;;;;5074248;28;20025;-54
2022/09/01 12:13:28;;;;;;;6.03;1.00;;;;;;;;;;5074074;28;20074;-53
2022/09/01 12:15:55;;;;;;;0.93;0.75;;;;;;;;;;5074150;28;20037;-53
2022/09/01 12:18:26;;;;;;;1.70;1.02;;;;;;;;;;5073459;28;20025;-54
2022/09/01 12:20:54;;;;;;;1.13;0.80;;;;;;;;;;5055942;28;20021;-53
2022/09/01 12:23:28;;;;;;;2.20;1.05;;;;;;;;;;5073568;28;20429;-53
2022/09/01 12:26:00;;;;;;;2.25;1.10;;;;;;;;;;5072660;28;20036;-55
2022/09/01 12:28:31;;;;;;;2.15;1.20;;;;;;;;;;5073111;28;20032;-53
2022/09/01 12:31:03;;;;;;;2.03;1.25;;;;;;;;;;5073615;28;20025;-53
2022/09/01 12:33:29;;;;;;;2.50;1.30;;;;;;;;;;5073625;28;20059;-53
2022/09/01 12:36:15;;;;;;;1.35;0.77;;;;;;;;;;5055188;28;20075;-54
2022/09/01 12:38:41;;;;;;;1.45;1.00;;;;;;;;;;5073279;28;20128;-53
2022/09/01 12:41:33;;;;;;;1.88;1.10;;;;;;;;;;5073032;28;20090;-53
2022/09/01 12:44:19;;;;;;;1.70;1.25;;;;;;;;;;5073179;28;20386;-54
2022/09/01 12:46:45;;;;;;;2.85;1.23;;;;;;;;;;5073019;28;20032;-53
2022/09/01 12:49:19;;;;;;;1.70;0.77;;;;;;;;;;5073290;28;20071;-55
2022/09/01 12:51:47;;;;;;;2.95;1.00;;;;;;;;;;5073183;28;20027;-53
2022/09/01 12:54:13;;;;;;;1.10;0.95;;;;;;;;;;5073408;28;20079;-54
2022/09/01 12:56:40;;;;;;;2.90;0.93;;;;;;;;;;5073372;28;20165;-55
2022/09/01 12:59:08;;;;;;;1.38;1.27;;;;;;;;;;5073053;28;20024;-55
2022/09/01 13:01:34;;;;;;;1.30;0.80;;;;;;;;;;5073120;28;20025;-54
2022/09/01 13:04:12;;;;;;;1.95;0.73;;;;;;;;;;5072956;28;20028;-52
2022/09/01 13:06:39;;;;;;;3.13;1.13;;;;;;;;;;5073446;28;20039;-53
2022/09/01 13:09:05;;;;;;;3.70;0.70;;;;;;;;;;5073062;28;20025;-53
2022/09/01 13:11:31;;;;;;;2.47;0.80;;;;;;;;;;5073094;28;20103;-55
2022/09/01 13:13:57;;;;;;;2.63;0.90;;;;;;;;;;5054775;28;20017;-53
2022/09/01 13:16:23;;;;;;;3.83;1.08;;;;;;;;;;5054799;28;20109;-53
2022/09/01 13:18:49;;;;;;;1.55;0.82;;;;;;;;;;5072615;28;20070;-52
2022/09/01 13:21:15;;;;;;;1.45;0.45;;;;;;;;;;5072539;28;20032;-52
2022/09/01 13:23:41;;;;;;;1.55;0.80;;;;;;;;;;5072328;28;20103;-53
2022/09/01 13:26:09;;;;;;;0.80;0.70;;;;;;;;;;5072833;28;20033;-52
2022/09/01 13:28:35;;;;;;;2.85;0.60;;;;;;;;;;5072257;28;20056;-52
2022/09/01 13:31:05;;;;;;;3.03;0.70;;;;;;;;;;5072099;28;20081;-52
2022/09/01 13:33:33;;;;;;;0.90;0.60;;;;;;;;;;5072369;28;20446;-52
2022/09/01 13:36:00;;;;;;;2.13;0.60;;;;;;;;;;5070253;28;20020;-55
2022/09/01 13:38:26;;;;;;;2.42;1.70;;;;;;;;;;5056009;28;20039;-53
2022/09/01 13:40:52;;;;;;;2.38;1.20;;;;;;;;;;5067009;28;20025;-53
2022/09/01 13:43:23;;;;;;;2.58;1.55;;;;;;;;;;5053268;28;20045;-55
2022/09/01 13:45:49;;;;;;;3.42;1.08;;;;;;;;;;5071400;28;20071;-55
2022/09/01 13:48:16;;;;;;;2.33;1.50;;;;;;;;;;5065579;28;20487;-53
2022/09/01 13:50:43;;;;;;;1.38;1.05;;;;;;;;;;5072183;28;20031;-54
2022/09/01 13:53:09;;;;;;;2.97;1.77;;;;;;;;;;5072245;28;20033;-56
2022/09/01 13:55:38;;;;;;;4.13;1.10;;;;;;;;;;5072228;28;20021;-57
2022/09/01 13:58:04;;;;;;;3.35;1.10;;;;;;;;;;5072096;28;20028;-57
2022/09/01 14:00:32;;;;;;;2.35;0.93;;;;;;;;;;5071846;28;20020;-58
2022/09/01 14:03:01;;;;;;;2.85;1.15;;;;;;;;;;5071967;28;20031;-57
2022/09/01 14:05:31;;;;;;;1.75;1.00;;;;;;;;;;5071109;28;20055;-58
2022/09/01 14:07:58;;;;;;;1.45;1.02;;;;;;;;;;5072002;28;20041;-58
2022/09/01 14:10:24;;;;;;;3.33;0.80;;;;;;;;;;5072054;28;20025;-58
2022/09/01 14:12:50;;;;;;;3.60;1.20;;;;;;;;;;5071784;28;20157;-58
2022/09/01 14:15:17;;;;;;;2.40;1.00;;;;;;;;;;5071813;28;20109;-58
2022/09/01 14:17:44;;;;;;;1.45;1.25;;;;;;;;;;5071850;28;20027;-58
2022/09/01 14:20:12;;;;;;;1.50;1.20;;;;;;;;;;5071827;28;20214;-58
2022/09/01 14:22:39;;;;;;;0.63;0.63;;;;;;;;;;5071668;28;20035;-57
2022/09/01 14:25:07;;;;;;;1.65;1.40;;;;;;;;;;5071981;28;20052;-57
2022/09/01 14:27:33;;;;;;;1.00;0.90;;;;;;;;;;5071756;28;20024;-55
2022/09/01 14:29:59;;;;;;;7.00;1.00;;;;;;;;;;5070832;28;20044;-56
2022/09/01 14:32:26;;;;;;;3.10;0.70;;;;;;;;;;5071420;28;20028;-56
2022/09/01 14:34:56;;;;;;;3.00;0.70;;;;;;;;;;5069951;28;20036;-55
2022/09/01 14:37:23;;;;;;;3.97;0.77;;;;;;;;;;5071198;28;20486;-56
2022/09/01 14:39:52;;;;;;;1.02;0.70;;;;;;;;;;5112518;22;20127;-62